Time;durP1;ratioP1;P1;durP2;ratioP2;P2;SDS_P1;SDS_P2;PMS_P1;PMS_P2;Temp;Humidity;BMP_temperature;BMP_pressure;BME280_temperature;BME280_humidity;BME280_pressure;Samples;Min_cycle;Max_cycle;Signal;HPM_P1;HPM_P2
2023/12/02 00:01:28;;;;;;;42.80;16.13;;;-1.40;99.90;;;;;;5043096;28;20044;-71
2023/12/02 00:03:54;;;;;;;47.10;17.45;;;-1.40;99.90;;;;;;5034089;28;20045;-72
2023/12/02 00:06:20;;;;;;;45.28;16.98;;;-1.40;99.90;;;;;;5038311;28;20036;-70
2023/12/02 00:08:45;;;;;;;44.45;16.52;;;-1.40;99.90;;;;;;5020537;28;20149;-71
2023/12/02 00:11:11;;;;;;;45.92;17.65;;;-1.50;99.90;;;;;;5037960;28;20043;-70
2023/12/02 00:13:37;;;;;;;43.80;17.08;;;-1.40;99.90;;;;;;5029227;28;20042;-71
2023/12/02 00:16:05;;;;;;;42.30;17.73;;;-1.40;99.90;;;;;;5034563;28;20033;-71
2023/12/02 00:18:30;;;;;;;42.33;16.67;;;-1.50;99.90;;;;;;5022328;28;20475;-71
2023/12/02 00:20:56;;;;;;;44.03;16.02;;;-1.50;99.90;;;;;;5038703;28;20057;-71
2023/12/02 00:23:22;;;;;;;41.20;16.92;;;-1.50;99.90;;;;;;5047197;28;20064;-71
2023/12/02 00:25:47;;;;;;;41.45;17.70;;;-1.50;99.90;;;;;;5036549;28;20116;-71
2023/12/02 00:28:13;;;;;;;41.88;16.63;;;-1.50;99.90;;;;;;5044517;28;20487;-71
2023/12/02 00:30:38;;;;;;;33.95;14.57;;;-1.60;99.90;;;;;;5038168;28;20057;-71
2023/12/02 00:33:04;;;;;;;41.53;16.80;;;-1.60;99.90;;;;;;5018255;28;20147;-70
2023/12/02 00:35:30;;;;;;;38.92;15.32;;;-1.60;99.90;;;;;;5029146;28;20049;-70
2023/12/02 00:37:55;;;;;;;47.03;17.23;;;-1.60;99.90;;;;;;5028189;28;20425;-70
2023/12/02 00:40:21;;;;;;;38.42;16.45;;;-1.70;99.90;;;;;;5028013;28;20037;-70
2023/12/02 00:42:47;;;;;;;39.58;15.93;;;-1.70;99.90;;;;;;5031074;28;20417;-70
2023/12/02 00:45:12;;;;;;;40.72;16.33;;;-1.70;99.90;;;;;;5036164;28;20033;-71
2023/12/02 00:47:38;;;;;;;40.80;16.23;;;-1.70;99.90;;;;;;5018693;28;20037;-70
2023/12/02 00:50:04;;;;;;;38.42;16.45;;;-1.70;99.90;;;;;;5030678;28;20045;-70
2023/12/02 00:52:30;;;;;;;42.88;17.60;;;-1.70;99.90;;;;;;5038206;28;20459;-70
2023/12/02 00:54:55;;;;;;;41.90;16.08;;;-1.70;99.90;;;;;;5027389;28;20064;-70
2023/12/02 00:57:21;;;;;;;41.70;16.30;;;-1.60;99.90;;;;;;5025700;28;20045;-71
2023/12/02 00:59:46;;;;;;;38.05;15.50;;;-1.60;99.90;;;;;;5026361;28;20385;-70
2023/12/02 01:02:12;;;;;;;42.65;16.77;;;-1.60;99.90;;;;;;5028733;28;20037;-70
2023/12/02 01:04:38;;;;;;;43.75;16.80;;;-1.60;99.90;;;;;;5037722;28;20492;-70
2023/12/02 01:07:04;;;;;;;50.15;18.35;;;-1.60;99.90;;;;;;5027369;28;20049;-71
2023/12/02 01:09:29;;;;;;;45.60;17.85;;;-1.60;99.90;;;;;;5033870;28;20048;-71
2023/12/02 01:11:55;;;;;;;50.92;19.30;;;-1.60;99.90;;;;;;5042279;28;20049;-70
2023/12/02 01:14:20;;;;;;;47.53;16.92;;;-1.60;99.90;;;;;;5028640;28;20136;-71
2023/12/02 01:16:46;;;;;;;49.42;18.15;;;-1.50;99.90;;;;;;5037858;28;20444;-70
2023/12/02 01:19:11;;;;;;;47.10;18.55;;;-1.50;99.90;;;;;;5036016;28;20037;-71
2023/12/02 01:21:37;;;;;;;44.88;17.23;;;-1.50;99.90;;;;;;5055224;28;20092;-71
2023/12/02 01:24:03;;;;;;;41.72;16.58;;;-1.50;99.90;;;;;;5028844;28;20175;-71
2023/12/02 01:26:28;;;;;;;48.78;18.42;;;-1.50;99.90;;;;;;5044699;28;20385;-70
2023/12/02 01:28:54;;;;;;;45.72;18.08;;;-1.50;99.90;;;;;;5028777;28;20053;-71
2023/12/02 01:31:20;;;;;;;42.72;18.35;;;-1.50;99.90;;;;;;5036462;28;20052;-71
2023/12/02 01:33:45;;;;;;;45.70;17.77;;;-1.50;99.90;;;;;;5027242;28;20040;-71
2023/12/02 01:36:14;;;;;;;46.90;17.67;;;-1.40;99.90;;;;;;5028844;28;20029;-70
2023/12/02 01:38:40;;;;;;;47.88;18.27;;;-1.40;99.90;;;;;;5026294;28;20354;-71
2023/12/02 01:41:06;;;;;;;46.88;18.60;;;-1.40;99.90;;;;;;5040756;28;20037;-71
2023/12/02 01:43:31;;;;;;;45.53;17.70;;;-1.40;99.90;;;;;;5040365;28;20048;-71
2023/12/02 01:45:57;;;;;;;46.58;18.10;;;-1.30;99.90;;;;;;5044569;28;20037;-71
2023/12/02 01:48:26;;;;;;;52.05;18.85;;;-1.30;99.90;;;;;;5034770;28;20374;-71
2023/12/02 01:50:52;;;;;;;44.92;17.77;;;-1.40;99.90;;;;;;5022143;28;20144;-71
2023/12/02 01:53:18;;;;;;;47.83;19.52;;;-1.30;99.90;;;;;;5027385;28;20128;-71
2023/12/02 01:55:44;;;;;;;48.05;17.75;;;-1.30;99.90;;;;;;5028947;28;20042;-71
2023/12/02 01:58:10;;;;;;;47.47;17.05;;;-1.30;99.90;;;;;;5014757;28;20065;-73
2023/12/02 02:00:36;;;;;;;44.15;17.52;;;-1.30;99.90;;;;;;5043189;28;20037;-71
2023/12/02 02:03:01;;;;;;;45.65;17.05;;;-1.30;99.90;;;;;;5033277;28;20106;-70
2023/12/02 02:05:27;;;;;;;42.83;17.20;;;-1.30;99.90;;;;;;5032995;28;20045;-70
2023/12/02 02:07:53;;;;;;;42.97;17.60;;;-1.30;99.90;;;;;;5048376;28;20037;-71
2023/12/02 02:10:22;;;;;;;48.33;18.73;;;-1.30;99.90;;;;;;5034984;28;20155;-71
2023/12/02 02:12:47;;;;;;;42.92;17.20;;;-1.30;99.90;;;;;;5012435;28;20465;-70
2023/12/02 02:15:14;;;;;;;43.65;17.27;;;-1.30;99.90;;;;;;5027975;28;20048;-71
2023/12/02 02:17:40;;;;;;;50.97;19.33;;;-1.30;99.90;;;;;;5039438;28;20048;-71
2023/12/02 02:20:08;;;;;;;42.67;16.55;;;-1.30;99.90;;;;;;5034368;28;20046;-70
2023/12/02 02:22:34;;;;;;;40.85;17.08;;;-1.30;99.90;;;;;;5039559;28;20152;-71
2023/12/02 02:24:59;;;;;;;43.63;17.10;;;-1.30;99.90;;;;;;5051793;28;20087;-71
2023/12/02 02:27:25;;;;;;;47.92;19.60;;;-1.40;99.90;;;;;;5036367;28;20052;-70
2023/12/02 02:29:51;;;;;;;44.05;18.83;;;-1.30;99.90;;;;;;5035482;28;20117;-71
2023/12/02 02:32:16;;;;;;;49.38;21.25;;;-1.40;99.90;;;;;;5037326;28;20056;-70
2023/12/02 02:34:42;;;;;;;69.70;28.38;;;-1.30;99.90;;;;;;5043132;28;20036;-70
2023/12/02 02:37:09;;;;;;;61.88;25.15;;;-1.30;99.90;;;;;;5034191;28;20251;-71
2023/12/02 02:39:34;;;;;;;51.97;21.00;;;-1.30;99.90;;;;;;5033512;28;20715;-71
2023/12/02 02:42:05;;;;;;;52.38;22.17;;;-1.30;99.90;;;;;;5037402;28;20041;-71
2023/12/02 02:44:38;;;;;;;51.65;18.92;;;-1.30;99.90;;;;;;5032818;28;20049;-71
2023/12/02 02:47:04;;;;;;;43.38;18.67;;;-1.30;99.90;;;;;;5039588;28;20045;-71
2023/12/02 02:49:29;;;;;;;47.85;19.90;;;-1.30;99.90;;;;;;5017950;28;20049;-71
2023/12/02 02:51:55;;;;;;;43.83;18.33;;;-1.30;99.90;;;;;;5029983;28;20401;-70
2023/12/02 02:54:21;;;;;;;48.33;18.08;;;-1.30;99.90;;;;;;5034493;28;20045;-71
2023/12/02 02:56:46;;;;;;;44.40;19.00;;;-1.30;99.90;;;;;;5031320;28;20103;-70
2023/12/02 02:59:12;;;;;;;48.88;18.30;;;-1.20;99.90;;;;;;5033234;28;20037;-70
2023/12/02 03:01:45;;;;;;;50.50;19.08;;;-1.20;99.90;;;;;;5038558;28;20045;-70
2023/12/02 03:04:10;;;;;;;45.58;17.83;;;-1.20;99.90;;;;;;5029302;28;20041;-71
2023/12/02 03:06:36;;;;;;;45.88;18.60;;;-1.20;99.90;;;;;;5038538;28;20553;-71
2023/12/02 03:09:01;;;;;;;42.60;18.60;;;-1.20;99.90;;;;;;5033480;28;20112;-70
2023/12/02 03:11:27;;;;;;;49.35;18.25;;;-1.20;99.90;;;;;;5018222;28;20145;-72
2023/12/02 03:13:53;;;;;;;46.78;17.98;;;-1.20;99.90;;;;;;5035154;28;20105;-71
2023/12/02 03:16:20;;;;;;;50.15;18.67;;;-1.10;99.90;;;;;;5039321;28;20529;-72
2023/12/02 03:18:45;;;;;;;42.88;16.98;;;-1.10;99.90;;;;;;5038546;28;20362;-71
2023/12/02 03:21:11;;;;;;;40.70;16.83;;;-1.10;99.90;;;;;;5042464;28;20034;-70
2023/12/02 03:23:36;;;;;;;45.15;16.67;;;-1.20;99.90;;;;;;5033501;28;20045;-70
2023/12/02 03:26:02;;;;;;;47.47;17.52;;;-1.20;99.90;;;;;;5045932;28;20040;-71
2023/12/02 03:28:28;;;;;;;45.03;17.25;;;-1.20;99.90;;;;;;5031285;28;20083;-70
2023/12/02 03:30:53;;;;;;;45.45;17.50;;;-1.20;99.90;;;;;;5022770;28;20049;-71
2023/12/02 03:33:19;;;;;;;44.75;18.02;;;-1.30;99.90;;;;;;5035685;28;20037;-71
2023/12/02 03:35:45;;;;;;;42.33;17.23;;;-1.20;99.90;;;;;;5022600;28;20045;-70
2023/12/02 03:38:10;;;;;;;40.83;17.05;;;-1.30;99.90;;;;;;5054319;28;20468;-71
2023/12/02 03:40:36;;;;;;;45.67;18.58;;;-1.30;99.90;;;;;;5012641;28;20386;-71
2023/12/02 03:43:01;;;;;;;40.10;16.52;;;-1.30;99.90;;;;;;5020881;28;20033;-70
2023/12/02 03:45:27;;;;;;;41.30;16.70;;;-1.30;99.90;;;;;;5031274;28;20464;-71
2023/12/02 03:47:53;;;;;;;50.00;18.40;;;-1.30;99.90;;;;;;5031336;28;20044;-71
2023/12/02 03:50:18;;;;;;;48.72;18.08;;;-1.30;99.90;;;;;;5036053;28;20037;-71
2023/12/02 03:52:45;;;;;;;46.38;19.33;;;-1.30;99.90;;;;;;5038265;28;20126;-71
2023/12/02 03:55:10;;;;;;;42.30;17.02;;;-1.40;99.90;;;;;;5035474;28;20041;-71
2023/12/02 03:57:36;;;;;;;46.53;17.25;;;-1.40;99.90;;;;;;5037236;28;20067;-71
2023/12/02 04:00:13;;;;;;;44.28;16.92;;;-1.40;99.90;;;;;;5033644;28;20453;-70
2023/12/02 04:02:39;;;;;;;38.90;16.42;;;-1.40;99.90;;;;;;5037792;28;20045;-71
2023/12/02 04:05:09;;;;;;;44.65;17.25;;;-1.40;99.90;;;;;;5034147;28;20047;-70
2023/12/02 04:07:36;;;;;;;45.08;17.13;;;-1.40;99.90;;;;;;5038629;28;20045;-70
2023/12/02 04:10:02;;;;;;;41.72;16.90;;;-1.40;99.90;;;;;;5028138;28;20075;-70
2023/12/02 04:12:32;;;;;;;46.58;18.13;;;-1.40;99.90;;;;;;5017432;28;20045;-71
2023/12/02 04:14:57;;;;;;;44.92;18.58;;;-1.40;99.90;;;;;;5039303;28;20033;-71
2023/12/02 04:17:23;;;;;;;47.75;17.90;;;-1.50;99.90;;;;;;5012558;28;20112;-73
2023/12/02 04:19:49;;;;;;;43.13;17.23;;;-1.50;99.90;;;;;;5033103;28;20033;-71
2023/12/02 04:22:16;;;;;;;42.35;17.27;;;-1.50;99.90;;;;;;5033338;28;20037;-70
2023/12/02 04:24:41;;;;;;;47.92;19.45;;;-1.50;99.90;;;;;;5040736;28;20151;-71
2023/12/02 04:27:07;;;;;;;41.58;16.92;;;-1.50;99.90;;;;;;5044703;28;20029;-71
2023/12/02 04:29:36;;;;;;;46.95;17.17;;;-1.40;99.90;;;;;;5030287;28;20104;-70
2023/12/02 04:32:03;;;;;;;43.53;18.08;;;-1.40;99.90;;;;;;5028731;28;20053;-71
2023/12/02 04:34:29;;;;;;;48.05;17.90;;;-1.40;99.90;;;;;;5045621;28;20072;-71
2023/12/02 04:36:55;;;;;;;46.17;17.75;;;-1.40;99.90;;;;;;5025031;28;20048;-70
2023/12/02 04:39:21;;;;;;;50.70;18.58;;;-1.40;99.90;;;;;;5018022;28;20453;-71
2023/12/02 04:41:46;;;;;;;45.72;17.75;;;-1.40;99.90;;;;;;5017021;28;20049;-71
2023/12/02 04:44:12;;;;;;;44.42;17.50;;;-1.30;99.90;;;;;;5030467;28;20052;-71
2023/12/02 04:46:38;;;;;;;45.33;18.40;;;-1.30;99.90;;;;;;5035212;28;20044;-70
2023/12/02 04:49:03;;;;;;;45.10;17.80;;;-1.30;99.90;;;;;;5010155;28;20473;-70
2023/12/02 04:51:29;;;;;;;39.10;17.38;;;-1.30;99.90;;;;;;5014459;28;20457;-71
2023/12/02 04:53:55;;;;;;;45.72;17.73;;;-1.20;99.90;;;;;;5034391;28;20210;-71
2023/12/02 04:56:20;;;;;;;37.63;15.80;;;-1.20;99.90;;;;;;5034968;28;20499;-71
2023/12/02 04:58:46;;;;;;;49.85;18.67;;;-1.20;99.90;;;;;;5029915;28;20044;-71
2023/12/02 05:01:12;;;;;;;46.03;17.90;;;-1.20;99.90;;;;;;5041318;28;20040;-71
2023/12/02 05:03:37;;;;;;;44.30;17.42;;;-1.20;99.90;;;;;;5015315;28;20080;-70
2023/12/02 05:06:04;;;;;;;45.50;16.65;;;-1.20;99.90;;;;;;5024824;28;20037;-71
2023/12/02 05:08:29;;;;;;;38.95;16.50;;;-1.20;99.90;;;;;;5028720;28;20050;-70
2023/12/02 05:10:55;;;;;;;40.25;17.02;;;-1.10;99.90;;;;;;5028501;28;20044;-71
2023/12/02 05:13:20;;;;;;;43.70;17.25;;;-1.10;99.90;;;;;;5033312;28;20075;-71
2023/12/02 05:15:46;;;;;;;41.35;16.88;;;-1.10;99.90;;;;;;5026233;28;20111;-71
2023/12/02 05:18:12;;;;;;;42.50;16.75;;;-1.10;99.90;;;;;;5029688;28;20079;-70
2023/12/02 05:20:38;;;;;;;44.25;17.90;;;-1.10;99.90;;;;;;5023944;28;20036;-71
2023/12/02 05:23:03;;;;;;;39.35;16.10;;;-1.10;99.90;;;;;;5041098;28;20041;-71
2023/12/02 05:25:29;;;;;;;45.13;17.20;;;-1.10;99.90;;;;;;5020834;28;20187;-71
2023/12/02 05:27:54;;;;;;;44.80;17.58;;;-1.10;99.90;;;;;;5030130;28;20455;-72
2023/12/02 05:30:20;;;;;;;42.15;16.50;;;-1.10;99.90;;;;;;5029796;28;20045;-71
2023/12/02 05:32:46;;;;;;;42.53;16.92;;;-1.00;99.90;;;;;;5027717;28;20598;-70
2023/12/02 05:35:12;;;;;;;41.25;16.48;;;-1.00;99.90;;;;;;5034998;28;20047;-71
2023/12/02 05:37:39;;;;;;;39.28;16.63;;;-1.00;99.90;;;;;;5031511;28;20128;-71
2023/12/02 05:40:05;;;;;;;35.15;15.55;;;-1.10;99.90;;;;;;5048229;28;20037;-71
2023/12/02 05:42:31;;;;;;;37.88;14.95;;;-1.10;99.90;;;;;;5028321;28;20091;-71
2023/12/02 05:44:57;;;;;;;43.20;16.02;;;-1.10;99.90;;;;;;5046995;28;20037;-71
2023/12/02 05:47:22;;;;;;;35.60;15.73;;;-1.20;99.90;;;;;;5038177;28;20045;-71
2023/12/02 05:49:48;;;;;;;38.53;14.80;;;-1.20;99.90;;;;;;5025986;28;20041;-71
2023/12/02 05:52:13;;;;;;;42.40;17.13;;;-1.20;99.90;;;;;;5032340;28;20270;-71
2023/12/02 05:54:39;;;;;;;39.80;16.25;;;-1.20;99.90;;;;;;5044482;28;20048;-71
2023/12/02 05:57:04;;;;;;;39.20;16.08;;;-1.20;99.90;;;;;;5035136;28;20224;-71
2023/12/02 05:59:30;;;;;;;39.05;16.02;;;-1.20;99.90;;;;;;5020483;28;20040;-71
2023/12/02 06:01:56;;;;;;;36.30;16.20;;;-1.20;99.90;;;;;;5034890;28;20064;-71
2023/12/02 06:04:21;;;;;;;43.00;16.52;;;-1.10;99.90;;;;;;5026387;28;20383;-72
2023/12/02 06:06:47;;;;;;;37.22;14.88;;;-1.10;99.90;;;;;;5035267;28;20048;-71
2023/12/02 06:09:13;;;;;;;41.65;15.35;;;-1.10;99.90;;;;;;5030280;28;20084;-72
2023/12/02 06:11:39;;;;;;;41.67;16.42;;;-1.10;99.90;;;;;;5032988;28;20512;-71
2023/12/02 06:14:05;;;;;;;43.22;16.13;;;-1.10;99.90;;;;;;5037016;28;20064;-71
2023/12/02 06:16:31;;;;;;;37.60;16.55;;;-1.10;99.90;;;;;;5034688;28;20091;-72
2023/12/02 06:18:56;;;;;;;40.97;16.52;;;-1.10;99.90;;;;;;5030442;28;20037;-71
2023/12/02 06:21:22;;;;;;;38.33;16.27;;;-1.10;99.90;;;;;;5010747;28;20083;-70
2023/12/02 06:23:48;;;;;;;39.00;15.73;;;-1.20;99.90;;;;;;5011485;28;20193;-71
2023/12/02 06:26:13;;;;;;;40.65;16.80;;;-1.20;99.90;;;;;;5030610;28;20143;-72
2023/12/02 06:28:39;;;;;;;40.72;16.02;;;-1.20;99.90;;;;;;5035622;28;20068;-72
2023/12/02 06:31:12;;;;;;;37.58;14.63;;;-1.10;99.90;;;;;;5018501;28;20509;-71
2023/12/02 06:33:38;;;;;;;41.03;16.80;;;-1.20;99.90;;;;;;5029929;28;20354;-71
2023/12/02 06:36:04;;;;;;;41.05;16.15;;;-1.20;99.90;;;;;;5026630;28;20037;-71
2023/12/02 06:38:30;;;;;;;39.83;16.83;;;-1.10;99.90;;;;;;5025838;28;20099;-71
2023/12/02 06:40:55;;;;;;;41.13;18.52;;;-1.10;99.90;;;;;;5026820;28;20037;-71
2023/12/02 06:43:21;;;;;;;38.58;16.55;;;-1.10;99.90;;;;;;5026204;28;20041;-71
2023/12/02 06:45:47;;;;;;;40.53;16.98;;;-1.10;99.90;;;;;;5033973;28;20437;-71
2023/12/02 06:48:12;;;;;;;45.38;16.67;;;-1.10;99.90;;;;;;5031795;28;20509;-71
2023/12/02 06:50:38;;;;;;;42.13;17.48;;;-1.10;99.90;;;;;;5045445;28;20481;-71
2023/12/02 06:53:04;;;;;;;40.33;16.02;;;-1.20;99.90;;;;;;5040703;28;20105;-71
2023/12/02 06:55:31;;;;;;;39.90;15.70;;;-1.10;99.90;;;;;;5032752;28;20053;-71
2023/12/02 06:57:58;;;;;;;40.80;17.52;;;-1.10;99.90;;;;;;5023728;28;20045;-71
2023/12/02 07:00:24;;;;;;;44.45;18.05;;;-1.20;99.90;;;;;;5012044;28;20085;-72
2023/12/02 07:02:49;;;;;;;38.83;16.45;;;-1.20;99.90;;;;;;5029867;28;20465;-71
2023/12/02 07:05:15;;;;;;;46.10;17.17;;;-1.20;99.90;;;;;;5042262;28;20043;-70
2023/12/02 07:07:40;;;;;;;51.70;17.92;;;-1.20;99.90;;;;;;5040786;28;20045;-71
2023/12/02 07:10:07;;;;;;;43.72;17.33;;;-1.20;99.90;;;;;;5016670;28;20477;-72
2023/12/02 07:12:32;;;;;;;43.42;17.00;;;-1.20;99.90;;;;;;5043810;28;20124;-70
2023/12/02 07:14:58;;;;;;;41.85;16.83;;;-1.20;99.90;;;;;;5028619;28;20200;-71
2023/12/02 07:17:23;;;;;;;41.92;15.27;;;-1.30;99.90;;;;;;5035026;28;20456;-71
2023/12/02 07:19:49;;;;;;;45.33;17.88;;;-1.20;99.90;;;;;;5030699;28;20096;-71
2023/12/02 07:22:15;;;;;;;47.65;16.88;;;-1.20;99.90;;;;;;5030408;28;20037;-71
2023/12/02 07:24:40;;;;;;;46.13;17.48;;;-1.20;99.90;;;;;;5026258;28;20063;-71
2023/12/02 07:27:06;;;;;;;46.92;18.02;;;-1.20;99.90;;;;;;5016518;28;20447;-71
2023/12/02 07:29:31;;;;;;;47.70;17.63;;;-1.20;99.90;;;;;;5034420;28;20095;-71
2023/12/02 07:31:57;;;;;;;44.20;18.02;;;-1.20;99.90;;;;;;5051195;28;20120;-71
2023/12/02 07:34:23;;;;;;;47.35;16.92;;;-1.20;99.90;;;;;;5032432;28;20051;-71
2023/12/02 07:36:48;;;;;;;47.22;17.42;;;-1.20;99.90;;;;;;5040514;28;20055;-72
2023/12/02 07:39:14;;;;;;;46.30;17.08;;;-1.20;99.90;;;;;;5038326;28;20033;-71
2023/12/02 07:41:42;;;;;;;47.10;18.50;;;-1.20;99.90;;;;;;5033765;28;20040;-71
2023/12/02 07:44:08;;;;;;;42.88;17.35;;;-1.20;99.90;;;;;;5033721;28;20037;-71
2023/12/02 07:46:33;;;;;;;40.22;15.70;;;-1.20;99.90;;;;;;5048053;28;20100;-71
2023/12/02 07:48:59;;;;;;;48.38;17.42;;;-1.20;99.90;;;;;;5022691;28;20845;-71
2023/12/02 07:51:24;;;;;;;42.72;18.10;;;-1.10;99.90;;;;;;5036000;28;20040;-71
2023/12/02 07:53:50;;;;;;;50.53;18.88;;;-1.10;99.90;;;;;;5032877;28;20041;-71
2023/12/02 07:56:19;;;;;;;47.72;17.42;;;-1.10;99.90;;;;;;5030257;28;20477;-71
2023/12/02 07:58:44;;;;;;;47.42;19.08;;;-1.10;99.90;;;;;;5029634;28;20041;-71
2023/12/02 08:01:10;;;;;;;44.50;17.05;;;-1.10;99.90;;;;;;5046550;28;20048;-71
2023/12/02 08:03:36;;;;;;;44.05;17.33;;;-1.10;99.90;;;;;;5040097;28;20041;-70
2023/12/02 08:06:01;;;;;;;37.92;15.63;;;-1.10;99.90;;;;;;5012020;28;20037;-71
2023/12/02 08:08:27;;;;;;;40.78;17.70;;;-1.00;99.90;;;;;;5020297;28;20061;-70
2023/12/02 08:10:54;;;;;;;52.33;21.17;;;-1.00;99.90;;;;;;5030260;28;20396;-71
2023/12/02 08:13:19;;;;;;;44.75;17.75;;;-1.10;99.90;;;;;;5049746;28;20052;-71
2023/12/02 08:15:45;;;;;;;50.58;19.70;;;-1.10;99.90;;;;;;5049200;28;20041;-71
2023/12/02 08:18:10;;;;;;;47.78;17.80;;;-1.10;99.90;;;;;;5017827;28;20045;-71
2023/12/02 08:20:36;;;;;;;48.88;18.65;;;-1.00;99.90;;;;;;5029575;28;20087;-70
2023/12/02 08:23:02;;;;;;;49.33;19.27;;;-1.00;99.90;;;;;;5041812;28;20043;-71
2023/12/02 08:25:27;;;;;;;49.40;17.30;;;-1.00;99.90;;;;;;5029977;28;20045;-70
2023/12/02 08:27:53;;;;;;;47.78;18.27;;;-1.00;99.90;;;;;;5040975;28;20078;-70
2023/12/02 08:30:19;;;;;;;41.55;16.85;;;-1.00;99.90;;;;;;5023778;28;20136;-71
2023/12/02 08:32:44;;;;;;;48.20;17.80;;;-0.90;99.90;;;;;;5037995;28;20049;-71
2023/12/02 08:35:10;;;;;;;47.20;18.42;;;-0.90;99.90;;;;;;5028696;28;20037;-72
2023/12/02 08:37:36;;;;;;;48.83;18.00;;;-0.90;99.90;;;;;;5036136;28;20056;-70
2023/12/02 08:40:05;;;;;;;44.42;18.88;;;-0.80;99.90;;;;;;5030239;28;20033;-71
2023/12/02 08:42:30;;;;;;;47.28;18.08;;;-0.90;99.90;;;;;;5029926;28;20044;-71
2023/12/02 08:44:56;;;;;;;52.92;19.08;;;-0.90;99.90;;;;;;5030131;28;20449;-71
2023/12/02 08:47:22;;;;;;;49.25;17.35;;;-0.90;99.90;;;;;;5011616;28;20124;-71
2023/12/02 08:49:47;;;;;;;44.65;17.42;;;-0.90;99.90;;;;;;5037651;28;20073;-71
2023/12/02 08:52:13;;;;;;;49.30;18.75;;;-0.90;99.90;;;;;;5029826;28;20119;-71
2023/12/02 08:54:39;;;;;;;48.03;18.48;;;-0.80;99.90;;;;;;5028945;28;20465;-71
2023/12/02 08:57:05;;;;;;;46.35;17.67;;;-0.90;99.90;;;;;;5035339;28;20059;-71
2023/12/02 08:59:31;;;;;;;48.75;17.67;;;-0.90;99.90;;;;;;5032023;28;20489;-71
2023/12/02 09:01:56;;;;;;;44.85;16.25;;;-0.80;99.90;;;;;;5046250;28;20120;-71
2023/12/02 09:04:22;;;;;;;50.15;17.38;;;-0.80;99.90;;;;;;5048224;28;20542;-71
2023/12/02 09:06:48;;;;;;;53.50;19.33;;;-0.80;99.90;;;;;;5047759;28;20064;-71
2023/12/02 09:09:14;;;;;;;42.65;16.65;;;-0.80;99.90;;;;;;5041286;28;20041;-71
2023/12/02 09:11:41;;;;;;;50.35;18.88;;;-0.80;99.90;;;;;;5049980;28;20483;-71
2023/12/02 09:14:06;;;;;;;50.80;18.73;;;-0.80;99.90;;;;;;5049291;28;20090;-70
2023/12/02 09:16:32;;;;;;;53.75;18.27;;;-0.80;99.90;;;;;;5049774;28;20040;-71
2023/12/02 09:18:58;;;;;;;49.00;17.92;;;-0.70;99.90;;;;;;5019616;28;22025;-72
2023/12/02 09:21:44;;;;;;;46.70;18.58;;;-0.70;99.90;;;;;;5028874;28;20413;-72
2023/12/02 09:24:35;;;;;;;48.63;18.35;;;-0.70;99.90;;;;;;5028176;28;20048;-71
2023/12/02 09:27:05;;;;;;;49.45;18.77;;;-0.70;99.90;;;;;;5012529;28;20033;-71
2023/12/02 09:29:49;;;;;;;46.30;17.48;;;-0.60;99.90;;;;;;5035783;28;20057;-71
2023/12/02 09:32:24;;;;;;;44.33;18.58;;;-0.60;99.90;;;;;;5049437;28;20128;-71
2023/12/02 09:34:59;;;;;;;46.70;17.30;;;-0.50;99.90;;;;;;5030798;28;20037;-71
2023/12/02 09:37:57;;;;;;;50.08;17.85;;;-0.50;99.90;;;;;;5049129;28;20048;-71
2023/12/02 09:40:25;;;;;;;47.00;18.25;;;-0.50;99.90;;;;;;5035442;28;20045;-72
2023/12/02 09:43:04;;;;;;;49.47;19.52;;;-0.40;99.90;;;;;;5042412;28;20163;-72
2023/12/02 09:45:41;;;;;;;43.47;17.50;;;-0.40;99.90;;;;;;5046105;28;20096;-72
2023/12/02 09:48:16;;;;;;;48.22;17.60;;;-0.40;99.90;;;;;;5027875;28;20760;-72
2023/12/02 09:50:53;;;;;;;45.45;17.55;;;-0.30;99.90;;;;;;5027784;28;20051;-73
2023/12/02 09:53:31;;;;;;;44.03;17.48;;;-0.30;99.90;;;;;;5047683;28;20353;-73
2023/12/02 09:56:08;;;;;;;51.20;18.50;;;-0.20;99.90;;;;;;5047689;28;20068;-72
2023/12/02 09:58:44;;;;;;;48.13;18.95;;;-0.20;99.90;;;;;;5048646;28;20380;-73
2023/12/02 10:01:28;;;;;;;48.17;17.65;;;-0.10;99.90;;;;;;5034885;28;20103;-73
2023/12/02 10:04:03;;;;;;;48.08;18.00;;;-0.20;99.90;;;;;;5045180;28;20094;-73
2023/12/02 10:06:44;;;;;;;48.97;18.90;;;-0.10;99.90;;;;;;5047886;28;20037;-73
2023/12/02 10:09:33;;;;;;;44.78;18.52;;;-0.10;99.90;;;;;;5047751;28;20089;-73
2023/12/02 10:12:05;;;;;;;47.05;17.77;;;0.00;99.90;;;;;;5036513;28;20045;-74
2023/12/02 10:14:33;;;;;;;48.30;19.15;;;0.00;99.90;;;;;;5028567;28;20049;-74
2023/12/02 10:17:02;;;;;;;47.03;18.20;;;0.00;99.90;;;;;;5028963;28;20049;-73
2023/12/02 10:19:50;;;;;;;46.25;19.20;;;0.00;99.90;;;;;;5027007;28;20117;-73
2023/12/02 10:22:19;;;;;;;44.65;18.27;;;0.10;99.90;;;;;;5029839;28;20037;-73
2023/12/02 10:25:04;;;;;;;47.53;18.65;;;0.30;99.90;;;;;;5027471;28;20099;-73
2023/12/02 10:27:36;;;;;;;47.90;17.88;;;0.30;99.90;;;;;;5024429;28;20500;-73
2023/12/02 10:30:10;;;;;;;47.03;19.00;;;0.40;99.90;;;;;;5028644;28;20140;-73
2023/12/02 10:32:57;;;;;;;58.08;19.45;;;0.50;99.90;;;;;;5038173;28;20940;-73
2023/12/02 10:35:33;;;;;;;55.28;17.58;;;0.50;99.90;;;;;;5027416;28;20050;-72
2023/12/02 10:38:19;;;;;;;50.17;18.60;;;0.60;99.90;;;;;;5028826;28;20045;-73
2023/12/02 10:40:49;;;;;;;46.92;17.98;;;0.50;99.90;;;;;;5030537;28;20045;-73
2023/12/02 10:43:19;;;;;;;46.53;18.10;;;0.50;99.90;;;;;;5035307;28;20122;-73
2023/12/02 10:45:46;;;;;;;46.13;17.48;;;0.60;99.90;;;;;;5048008;28;20290;-71
2023/12/02 10:48:15;;;;;;;44.78;17.67;;;0.60;99.90;;;;;;5047403;28;20512;-72
2023/12/02 10:50:42;;;;;;;45.35;18.35;;;0.60;99.90;;;;;;5047404;28;20118;-73
2023/12/02 10:53:09;;;;;;;44.47;17.67;;;0.70;99.90;;;;;;5020191;28;20049;-73
2023/12/02 10:55:37;;;;;;;43.13;17.35;;;0.80;99.90;;;;;;5037458;28;20060;-74
2023/12/02 10:58:07;;;;;;;40.83;15.88;;;0.80;99.90;;;;;;5030632;28;20036;-74
2023/12/02 11:00:41;;;;;;;40.78;17.27;;;0.80;99.90;;;;;;5046278;28;20060;-75
2023/12/02 11:03:26;;;;;;;42.40;17.17;;;0.80;99.90;;;;;;5033980;28;20087;-75
2023/12/02 11:06:06;;;;;;;45.47;17.33;;;0.80;99.90;;;;;;5033098;28;20042;-77
2023/12/02 11:08:54;;;;;;;45.70;17.73;;;0.80;99.90;;;;;;5032583;28;20466;-76
2023/12/02 11:11:42;;;;;;;40.22;17.25;;;0.80;99.90;;;;;;5049082;28;20500;-78
2023/12/02 11:14:14;;;;;;;41.03;16.42;;;0.90;99.90;;;;;;5031589;28;20068;-77
2023/12/02 11:17:06;;;;;;;40.88;16.27;;;0.90;99.90;;;;;;5032446;28;20041;-77
2023/12/02 11:19:54;;;;;;;41.58;17.85;;;0.90;99.90;;;;;;5014615;28;20041;-78
2023/12/02 11:22:40;;;;;;;40.20;16.88;;;1.00;99.90;;;;;;5031700;28;20038;-77
2023/12/02 11:25:25;;;;;;;41.47;16.30;;;1.00;99.90;;;;;;5038204;28;20405;-77
2023/12/02 11:27:57;;;;;;;41.63;16.70;;;1.00;99.90;;;;;;5020220;28;20034;-77
2023/12/02 11:30:22;;;;;;;37.30;16.15;;;1.10;99.90;;;;;;5033240;28;20053;-78
2023/12/02 11:33:17;;;;;;;45.78;17.85;;;1.10;99.90;;;;;;5046563;28;20056;-76
2023/12/02 11:36:12;;;;;;;41.30;16.50;;;1.10;99.90;;;;;;5015045;28;20049;-76
2023/12/02 11:39:03;;;;;;;41.97;17.58;;;1.20;99.90;;;;;;5033924;28;20057;-74
2023/12/02 11:41:43;;;;;;;37.05;15.68;;;1.20;99.90;;;;;;5030876;28;20032;-75
2023/12/02 11:44:19;;;;;;;43.28;17.60;;;1.20;99.90;;;;;;5041895;28;20037;-74
2023/12/02 11:47:25;;;;;;;38.35;16.10;;;1.20;99.90;;;;;;5046099;28;20041;-74
2023/12/02 11:50:22;;;;;;;40.20;15.80;;;1.20;99.90;;;;;;5024997;28;20056;-75
2023/12/02 11:53:05;;;;;;;37.70;15.73;;;1.10;99.90;;;;;;5033161;28;20450;-74
2023/12/02 11:55:49;;;;;;;35.83;15.68;;;1.20;99.90;;;;;;5021570;28;20047;-75
2023/12/02 11:58:28;;;;;;;39.83;15.93;;;1.30;99.90;;;;;;5021979;28;20047;-75
2023/12/02 12:01:07;;;;;;;42.72;16.63;;;1.20;99.90;;;;;;5047268;28;20036;-75
2023/12/02 12:03:52;;;;;;;37.97;15.35;;;1.30;99.90;;;;;;5030872;28;20045;-74
2023/12/02 12:06:51;;;;;;;37.25;16.45;;;1.30;99.90;;;;;;5047641;28;20045;-76
2023/12/02 12:09:26;;;;;;;37.45;16.30;;;1.30;99.90;;;;;;5034194;28;20098;-75
2023/12/02 12:11:56;;;;;;;42.30;17.52;;;1.30;99.90;;;;;;5020373;28;20038;-75
2023/12/02 12:14:23;;;;;;;43.38;17.77;;;1.40;99.90;;;;;;5031482;28;20049;-75
2023/12/02 12:16:50;;;;;;;37.25;15.60;;;1.40;99.90;;;;;;5031256;28;20037;-75
2023/12/02 12:19:15;;;;;;;40.85;16.90;;;1.40;99.90;;;;;;5034094;28;20117;-76
2023/12/02 12:21:42;;;;;;;39.13;16.17;;;1.40;99.90;;;;;;5018907;28;20438;-74
2023/12/02 12:24:08;;;;;;;38.95;16.23;;;1.40;99.90;;;;;;5012856;28;20089;-74
2023/12/02 12:26:33;;;;;;;36.38;16.38;;;1.40;99.90;;;;;;5030646;28;20111;-75
2023/12/02 12:29:01;;;;;;;38.45;16.95;;;1.40;99.90;;;;;;5048226;28;20441;-75
2023/12/02 12:31:30;;;;;;;38.85;16.85;;;1.40;99.90;;;;;;5040132;28;20049;-75
2023/12/02 12:33:56;;;;;;;38.40;16.27;;;1.50;99.90;;;;;;5030038;28;20037;-75
2023/12/02 12:36:30;;;;;;;36.75;14.90;;;1.50;99.90;;;;;;5013004;28;20081;-74